createdAt,value
2023-05-12T00:00:50.225Z,101184.06
2023-05-12T00:03:19.449Z,101184.84
2023-05-12T00:05:45.900Z,101196.78
2023-05-12T00:08:13.143Z,101192.81
2023-05-12T00:10:39.561Z,101191.19
2023-05-12T00:13:05.950Z,101192.00
2023-05-12T00:15:32.380Z,101198.38
2023-05-12T00:17:58.846Z,101193.19
2023-05-12T00:20:28.000Z,101194.00
2023-05-12T00:22:54.397Z,101193.59
2023-05-12T00:25:21.604Z,101196.78
2023-05-12T00:27:48.880Z,101197.56
2023-05-12T00:30:15.348Z,101203.13
2023-05-12T00:32:41.781Z,101195.56
2023-05-12T00:35:09.029Z,101191.59
2023-05-12T00:37:35.357Z,101190.81
2023-05-12T00:40:02.602Z,101196.78
2023-05-12T00:42:29.029Z,101200.72
2023-05-12T00:44:56.253Z,101199.94
2023-05-12T00:47:23.535Z,101205.91
2023-05-12T00:49:49.946Z,101204.72
2023-05-12T00:52:16.331Z,101201.94
2023-05-12T00:54:42.741Z,101208.28
2023-05-12T00:57:09.099Z,101202.72
2023-05-12T00:59:35.442Z,101211.47
2023-05-12T01:02:02.690Z,101210.28
2023-05-12T01:04:29.920Z,101208.28
2023-05-12T01:06:57.157Z,101216.63
2023-05-12T01:09:23.711Z,101215.47
2023-05-12T01:11:50.958Z,101209.88
2023-05-12T01:14:17.341Z,101207.50
2023-05-12T01:16:43.748Z,101209.06
2023-05-12T01:19:10.135Z,101213.84
2023-05-12T01:21:37.355Z,101216.63
2023-05-12T01:24:03.687Z,101220.22
2023-05-12T01:26:30.027Z,101217.44
2023-05-12T01:28:59.141Z,101221.41
2023-05-12T01:31:25.605Z,101223.00
2023-05-12T01:33:51.987Z,101225.00
2023-05-12T01:36:18.348Z,101217.84
2023-05-12T01:38:44.728Z,101225.00
2023-05-12T01:41:11.112Z,101220.22
2023-05-12T01:43:37.461Z,101215.84
2023-05-12T01:46:03.833Z,101225.00
2023-05-12T01:48:31.074Z,101225.00
2023-05-12T01:50:57.407Z,101228.16
2023-05-12T01:53:23.801Z,101229.78
2023-05-12T01:55:50.145Z,101228.97
2023-05-12T01:58:16.493Z,101221.81
2023-05-12T02:00:44.741Z,101229.78
2023-05-12T02:03:11.206Z,101223.81
2023-05-12T02:05:37.653Z,101227.38
2023-05-12T02:08:04.040Z,101221.41
2023-05-12T02:10:30.377Z,101228.16
2023-05-12T02:12:56.811Z,101229.75
2023-05-12T02:15:23.205Z,101220.59
2023-05-12T02:17:50.489Z,101218.22
2023-05-12T02:20:17.893Z,101228.53
2023-05-12T02:22:44.402Z,101224.19
2023-05-12T02:25:11.605Z,101228.94
2023-05-12T02:27:38.837Z,101226.16
2023-05-12T02:30:05.191Z,101229.34
2023-05-12T02:32:31.617Z,101230.94
2023-05-12T02:34:58.017Z,101233.31
2023-05-12T02:37:24.365Z,101232.91
2023-05-12T02:39:50.736Z,101238.88
2023-05-12T02:42:17.965Z,101235.69
2023-05-12T02:44:44.323Z,101239.25
2023-05-12T02:47:11.558Z,101247.63
2023-05-12T02:49:37.891Z,101243.66
2023-05-12T02:52:04.265Z,101243.66
2023-05-12T02:54:30.611Z,101250.81
2023-05-12T02:56:56.952Z,101252.41
2023-05-12T02:59:23.327Z,101253.97
2023-05-12T03:01:49.678Z,101252.78
2023-05-12T03:04:16.934Z,101254.38
2023-05-12T03:06:43.355Z,101254.38
2023-05-12T03:09:10.588Z,101256.75
2023-05-12T03:11:37.035Z,101254.78
2023-05-12T03:14:03.389Z,101259.53
2023-05-12T03:16:30.658Z,101250.41
2023-05-12T03:18:57.098Z,101250.00
2023-05-12T03:21:23.480Z,101244.44
2023-05-12T03:23:49.837Z,101258.34
2023-05-12T03:26:17.052Z,101251.19
2023-05-12T03:28:43.406Z,101250.78
2023-05-12T03:31:09.782Z,101252.78
2023-05-12T03:33:36.151Z,101252.41
2023-05-12T03:36:02.537Z,101253.19
2023-05-12T03:38:28.936Z,101258.38
2023-05-12T03:40:55.309Z,101262.31
2023-05-12T03:43:22.533Z,101258.75
2023-05-12T03:45:48.869Z,101263.53
2023-05-12T03:48:15.412Z,101275.47
2023-05-12T03:50:41.857Z,101259.97
2023-05-12T03:53:09.059Z,101263.91
2023-05-12T03:55:36.290Z,101271.88
2023-05-12T03:58:02.689Z,101273.88
2023-05-12T04:00:29.047Z,101270.66
2023-05-12T04:02:55.577Z,101280.63
2023-05-12T04:05:22.884Z,101284.59
2023-05-12T04:07:49.221Z,101282.63
2023-05-12T04:10:15.580Z,101280.25
2023-05-12T04:12:42.780Z,101281.06
2023-05-12T04:15:09.500Z,101286.63
2023-05-12T04:17:35.873Z,101293.81
2023-05-12T04:20:02.199Z,101289.81
2023-05-12T04:22:28.548Z,101285.84
2023-05-12T04:24:54.886Z,101285.47
2023-05-12T04:27:21.295Z,101294.59
2023-05-12T04:29:47.645Z,101294.22
2023-05-12T04:32:14.929Z,101290.66
2023-05-12T04:34:41.312Z,101293.44
2023-05-12T04:37:07.647Z,101289.44
2023-05-12T04:39:33.964Z,101297.41
2023-05-12T04:42:00.300Z,101291.41
2023-05-12T04:44:26.638Z,101294.59
2023-05-12T04:46:53.856Z,101297.00
2023-05-12T04:49:21.065Z,101293.91
2023-05-12T04:51:48.278Z,101300.09
2023-05-12T04:54:14.641Z,101298.31
2023-05-12T04:56:40.978Z,101303.09
2023-05-12T04:59:07.301Z,101304.69
2023-05-12T05:01:34.701Z,101306.66
2023-05-12T05:04:01.264Z,101298.69
2023-05-12T05:06:27.705Z,101310.19
2023-05-12T05:08:55.076Z,101303.50
2023-05-12T05:11:21.537Z,101314.38
2023-05-12T05:13:47.986Z,101310.38
2023-05-12T05:16:14.526Z,101317.59
2023-05-12T05:18:41.035Z,101313.22
2023-05-12T05:21:08.625Z,101310.81
2023-05-12T05:23:35.166Z,101318.28
2023-05-12T05:26:02.476Z,101321.78
2023-05-12T05:28:28.900Z,101323.72
2023-05-12T05:30:55.364Z,101329.75
2023-05-12T05:33:21.852Z,101316.22
2023-05-12T05:35:48.285Z,101323.06
2023-05-12T05:38:15.580Z,101319.50
2023-05-12T05:40:53.114Z,101327.53
2023-05-12T05:43:22.710Z,101323.19
2023-05-12T05:45:49.189Z,101333.28
2023-05-12T05:48:15.661Z,101330.47
2023-05-12T05:50:42.149Z,101328.47
2023-05-12T05:53:11.344Z,101333.69
2023-05-12T05:55:38.594Z,101335.31
2023-05-12T05:58:05.023Z,101331.81
2023-05-12T06:00:32.344Z,101333.38
2023-05-12T06:02:59.773Z,101339.28
2023-05-12T06:05:27.216Z,101340.91
2023-05-12T06:07:53.633Z,101336.16
2023-05-12T06:10:21.153Z,101343.69
2023-05-12T06:12:47.811Z,101341.28
2023-05-12T06:15:14.292Z,101339.31
2023-05-12T06:17:41.584Z,101337.38
2023-05-12T06:20:08.871Z,101346.16
2023-05-12T06:22:35.301Z,101342.56
2023-05-12T06:25:04.530Z,101338.56
2023-05-12T06:27:31.777Z,101345.03
2023-05-12T06:29:59.146Z,101337.03
2023-05-12T06:32:25.602Z,101344.88
2023-05-12T06:34:52.983Z,101344.06
2023-05-12T06:37:19.487Z,101353.63
2023-05-12T06:39:46.171Z,101348.94
2023-05-12T06:42:14.476Z,101345.34
2023-05-12T06:44:42.268Z,101355.34
2023-05-12T06:47:11.883Z,101341.44
2023-05-12T06:49:38.386Z,101342.25
2023-05-12T06:52:05.936Z,101347.44
2023-05-12T06:54:32.474Z,101346.22
2023-05-12T06:56:58.969Z,101345.88
2023-05-12T06:59:25.409Z,101345.13
2023-05-12T07:01:51.854Z,101345.13
2023-05-12T07:04:18.304Z,101345.06
2023-05-12T07:06:44.797Z,101348.25
2023-05-12T07:09:11.412Z,101339.09
2023-05-12T07:11:37.883Z,101341.06
2023-05-12T07:14:04.338Z,101340.28
2023-05-12T07:16:34.358Z,101345.47
2023-05-12T07:19:00.854Z,101340.28
2023-05-12T07:21:27.278Z,101348.25
2023-05-12T07:23:53.694Z,101346.72
2023-05-12T07:26:20.173Z,101352.66
2023-05-12T07:28:46.606Z,101342.31
2023-05-12T07:31:13.018Z,101340.41
2023-05-12T07:33:40.311Z,101345.59
2023-05-12T07:36:06.724Z,101348.38
2023-05-12T07:38:33.110Z,101344.81
2023-05-12T07:40:59.523Z,101347.59
2023-05-12T07:43:25.968Z,101344.03
2023-05-12T07:45:53.360Z,101351.22
2023-05-12T07:48:20.763Z,101342.06
2023-05-12T07:50:48.100Z,101353.63
2023-05-12T07:53:15.480Z,101351.63
2023-05-12T07:55:42.783Z,101358.00
2023-05-12T07:58:10.018Z,101361.63
2023-05-12T08:00:37.270Z,101351.69
2023-05-12T08:03:04.592Z,101353.69
2023-05-12T08:05:31.054Z,101359.66
2023-05-12T08:07:58.429Z,101360.84
2023-05-12T08:10:24.916Z,101362.06
2023-05-12T08:12:52.213Z,101354.50
2023-05-12T08:15:21.664Z,101359.28
2023-05-12T08:17:48.411Z,101344.56
2023-05-12T08:20:15.848Z,101359.28
2023-05-12T08:22:43.086Z,101354.88
2023-05-12T08:25:17.073Z,101353.34
2023-05-12T08:27:43.564Z,101358.50
2023-05-12T08:30:09.988Z,101355.28
2023-05-12T08:32:36.383Z,101352.09
2023-05-12T08:35:03.682Z,101347.75
2023-05-12T08:37:31.340Z,101348.16
2023-05-12T08:39:58.905Z,101358.09
2023-05-12T08:42:25.348Z,101355.72
2023-05-12T08:44:54.514Z,101356.91
2023-05-12T08:47:20.872Z,101346.53
2023-05-12T08:49:49.386Z,101344.16
2023-05-12T08:52:18.426Z,101348.53
2023-05-12T08:54:55.024Z,101358.09
2023-05-12T08:57:24.517Z,101347.38
2023-05-12T08:59:51.780Z,101344.59
2023-05-12T09:02:18.239Z,101343.38
2023-05-12T09:04:45.626Z,101350.91
2023-05-12T09:07:12.912Z,101352.50
2023-05-12T09:09:39.272Z,101346.16
2023-05-12T09:12:05.664Z,101338.63
2023-05-12T09:14:32.040Z,101327.47
2023-05-12T09:16:58.369Z,101336.63
2023-05-12T09:19:24.695Z,101343.41
2023-05-12T09:21:51.044Z,101338.22
2023-05-12T09:24:18.247Z,101339.41
2023-05-12T09:26:44.578Z,101331.84
2023-05-12T09:29:15.810Z,101333.44
2023-05-12T09:31:47.580Z,101328.28
2023-05-12T09:34:13.951Z,101331.06
2023-05-12T09:36:40.346Z,101330.66
2023-05-12T09:39:06.727Z,101327.88
2023-05-12T09:41:33.059Z,101337.41
2023-05-12T09:43:59.404Z,101321.91
2023-05-12T09:46:25.805Z,101334.25
2023-05-12T09:48:52.268Z,101327.94
2023-05-12T09:51:18.677Z,101325.94
2023-05-12T09:53:45.060Z,101334.69
2023-05-12T09:56:12.313Z,101331.09
2023-05-12T09:58:38.767Z,101327.53
2023-05-12T10:01:21.772Z,101329.94
2023-05-12T10:03:52.211Z,101356.16
2023-05-12T10:06:19.456Z,101341.06
2023-05-12T10:08:45.882Z,101336.66
2023-05-12T10:11:12.303Z,101326.31
2023-05-12T10:13:39.673Z,101335.88
2023-05-12T10:16:07.080Z,101317.94
2023-05-12T10:18:33.514Z,101317.56
2023-05-12T10:21:00.868Z,101319.56
2023-05-12T10:23:27.293Z,101323.38
2023-05-12T10:25:53.725Z,101321.75
2023-05-12T10:28:20.178Z,101328.88
2023-05-12T10:30:46.595Z,101331.25
2023-05-12T10:33:15.230Z,101327.22
2023-05-12T10:35:41.569Z,101318.47
2023-05-12T10:38:07.936Z,101329.94
2023-05-12T10:40:34.304Z,101309.66
2023-05-12T10:43:00.669Z,101313.28
2023-05-12T10:45:26.997Z,101312.09
2023-05-12T10:47:54.302Z,101320.03
2023-05-12T10:50:20.667Z,101306.97
2023-05-12T10:52:47.000Z,101321.31
2023-05-12T10:55:16.231Z,101303.72
2023-05-12T10:57:42.934Z,101308.16
2023-05-12T11:00:10.789Z,101304.97
2023-05-12T11:02:38.593Z,101309.75
2023-05-12T11:05:06.911Z,101293.47
2023-05-12T11:07:34.695Z,101294.66
2023-05-12T11:10:02.895Z,101308.59
2023-05-12T11:12:31.812Z,101306.63
2023-05-12T11:14:58.200Z,101307.47
2023-05-12T11:17:26.554Z,101300.34
2023-05-12T11:19:52.972Z,101308.25
2023-05-12T11:24:45.652Z,101291.97
2023-05-12T11:27:12.098Z,101312.69
2023-05-12T11:29:38.512Z,101303.16
2023-05-12T11:32:05.862Z,101298.00
2023-05-12T11:34:33.272Z,101294.47
2023-05-12T11:37:00.506Z,101289.31
2023-05-12T11:39:26.889Z,101302.47
2023-05-12T11:42:02.117Z,101294.09
2023-05-12T11:44:35.829Z,101287.75
2023-05-12T11:47:02.176Z,101286.53
2023-05-12T11:49:28.484Z,101282.56
2023-05-12T11:51:54.849Z,101292.16
2023-05-12T11:54:21.182Z,101299.28
2023-05-12T11:56:47.583Z,101292.91
2023-05-12T11:59:13.924Z,101285.34
2023-05-12T12:01:40.270Z,101279.34
2023-05-12T12:04:06.731Z,101288.50
2023-05-12T12:06:33.158Z,101270.97
2023-05-12T12:08:59.501Z,101314.78
2023-05-12T12:11:25.835Z,101284.88
2023-05-12T12:13:52.186Z,101289.31
2023-05-12T12:16:18.597Z,101286.19
2023-05-12T12:18:45.064Z,101280.22
2023-05-12T12:21:11.449Z,101278.56
2023-05-12T12:23:49.978Z,101280.53
2023-05-12T12:26:17.447Z,101285.41
2023-05-12T12:28:43.816Z,101290.19
2023-05-12T12:31:11.070Z,101271.47
2023-05-12T12:33:37.471Z,101264.69
2023-05-12T12:36:03.818Z,101282.63
2023-05-12T12:38:30.155Z,101281.81
2023-05-12T12:40:56.463Z,101274.66
2023-05-12T12:43:22.943Z,101267.00
2023-05-12T12:45:49.273Z,101277.78
2023-05-12T12:48:16.475Z,101272.63
2023-05-12T12:50:42.840Z,101261.88
2023-05-12T12:53:09.199Z,101269.06
2023-05-12T12:55:35.564Z,101258.28
2023-05-12T12:58:01.909Z,101260.25
2023-05-12T13:00:28.239Z,101259.44
2023-05-12T13:02:54.636Z,101264.22
2023-05-12T13:05:21.290Z,101270.97
2023-05-12T13:07:47.861Z,101262.63
2023-05-12T13:10:15.075Z,101272.97
2023-05-12T13:12:41.418Z,101262.22
2023-05-12T13:15:07.746Z,101256.25
2023-05-12T13:17:34.099Z,101259.06
2023-05-12T13:20:00.457Z,101244.34
2023-05-12T13:22:26.790Z,101238.00
2023-05-12T13:24:53.121Z,101229.66
2023-05-12T13:27:19.470Z,101229.66
2023-05-12T13:29:45.777Z,101232.44
2023-05-12T13:32:12.998Z,101230.03
2023-05-12T13:34:39.377Z,101236.81
2023-05-12T13:37:06.618Z,101234.00
2023-05-12T13:39:33.864Z,101233.22
2023-05-12T13:42:00.201Z,101232.03
2023-05-12T13:44:26.575Z,101228.03
2023-05-12T13:46:52.913Z,101231.22
2023-05-12T13:49:19.289Z,101233.22
2023-05-12T13:51:45.645Z,101236.41
2023-05-12T13:54:12.872Z,101228.44
2023-05-12T13:56:39.230Z,101223.69
2023-05-12T13:59:05.616Z,101228.03
2023-05-12T14:01:32.000Z,101224.47
2023-05-12T14:03:58.391Z,101211.72
2023-05-12T14:06:24.756Z,101210.53
2023-05-12T14:08:51.094Z,101214.09
2023-05-12T14:11:18.330Z,101209.75
2023-05-12T14:13:44.660Z,101218.09
2023-05-12T14:16:11.012Z,101223.28
2023-05-12T14:18:37.419Z,101222.47
2023-05-12T14:21:03.799Z,101214.50
2023-05-12T14:23:30.160Z,101215.72
2023-05-12T14:25:56.537Z,101216.50
2023-05-12T14:28:23.051Z,101214.88
2023-05-12T14:30:49.510Z,101226.47
2023-05-12T14:33:16.764Z,101220.91
2023-05-12T14:35:44.774Z,101212.94
2023-05-12T14:38:15.472Z,101211.72
2023-05-12T14:40:41.843Z,101205.75
2023-05-12T14:43:08.190Z,101215.31
2023-05-12T14:45:34.589Z,101212.91
2023-05-12T14:48:01.020Z,101214.50
2023-05-12T14:50:28.306Z,101207.34
2023-05-12T14:52:54.687Z,101203.72
2023-05-12T14:55:23.806Z,101209.28
2023-05-12T14:57:50.144Z,101209.75
2023-05-12T15:00:16.508Z,101224.06
2023-05-12T15:02:43.001Z,101211.72
2023-05-12T15:05:09.484Z,101218.09
2023-05-12T15:07:35.872Z,101211.31
2023-05-12T15:10:02.339Z,101206.97
2023-05-12T15:12:29.735Z,101216.50
2023-05-12T15:14:57.159Z,101206.56
2023-05-12T15:17:23.617Z,101208.94
2023-05-12T15:19:51.026Z,101212.53
2023-05-12T15:22:18.436Z,101209.75
2023-05-12T15:24:44.897Z,101216.50
2023-05-12T15:27:11.333Z,101209.34
2023-05-12T15:29:37.788Z,101215.72
2023-05-12T15:32:04.244Z,101204.97
2023-05-12T15:34:31.521Z,101204.19
2023-05-12T15:36:58.750Z,101201.78
2023-05-12T15:39:25.970Z,101205.38
2023-05-12T15:41:52.470Z,101205.75
2023-05-12T15:44:18.941Z,101205.38
2023-05-12T15:46:46.201Z,101207.75
2023-05-12T15:49:12.665Z,101203.78
2023-05-12T15:51:39.006Z,101200.22
2023-05-12T15:54:06.990Z,101208.59
2023-05-12T15:56:34.184Z,101207.38
2023-05-12T15:59:00.587Z,101200.59
2023-05-12T16:01:26.958Z,101204.97
2023-05-12T16:03:53.404Z,101208.53
2023-05-12T16:06:20.782Z,101203.38
2023-05-12T16:08:48.030Z,101201.38
2023-05-12T16:11:15.302Z,101204.19
2023-05-12T16:13:41.796Z,101200.19
2023-05-12T16:16:08.316Z,101198.22
2023-05-12T16:18:34.821Z,101197.41
2023-05-12T16:21:01.341Z,101200.59
2023-05-12T16:23:27.813Z,101200.59
2023-05-12T16:25:54.281Z,101201.38
2023-05-12T16:28:21.536Z,101197.78
2023-05-12T16:30:48.012Z,101194.19
2023-05-12T16:33:14.484Z,101195.81
2023-05-12T16:35:41.798Z,101196.56
2023-05-12T16:38:09.057Z,101206.50
2023-05-12T16:40:35.435Z,101202.13
2023-05-12T16:43:02.961Z,101205.31
2023-05-12T16:45:30.196Z,101203.31
2023-05-12T16:47:57.431Z,101202.50
2023-05-12T16:50:23.828Z,101196.94
2023-05-12T16:52:50.644Z,101199.72
2023-05-12T16:55:17.877Z,101198.13
2023-05-12T16:57:44.257Z,101196.16
2023-05-12T17:00:10.648Z,101197.31
2023-05-12T17:02:37.091Z,101206.09
2023-05-12T17:05:03.531Z,101212.44
2023-05-12T17:07:29.905Z,101200.50
2023-05-12T17:09:56.534Z,101215.66
2023-05-12T17:12:22.905Z,101202.09
2023-05-12T17:14:59.424Z,101214.81
2023-05-12T17:17:31.015Z,101212.81
2023-05-12T17:20:00.411Z,101208.84
2023-05-12T17:22:27.837Z,101212.41
2023-05-12T17:24:54.199Z,101209.63
2023-05-12T17:27:21.480Z,101213.25
2023-05-12T17:29:48.173Z,101210.47
2023-05-12T17:32:15.462Z,101212.03
2023-05-12T17:34:42.692Z,101214.44
2023-05-12T17:37:09.956Z,101219.22
2023-05-12T17:39:36.302Z,101214.44
2023-05-12T17:42:02.661Z,101223.97
2023-05-12T17:44:29.049Z,101220.41
2023-05-12T17:46:55.492Z,101218.81
2023-05-12T17:49:21.856Z,101224.78
2023-05-12T17:51:48.251Z,101228.34
2023-05-12T17:54:15.487Z,101227.97
2023-05-12T17:56:41.856Z,101229.53
2023-05-12T17:59:08.211Z,101233.94
2023-05-12T18:01:34.594Z,101238.31
2023-05-12T18:04:01.002Z,101229.97
2023-05-12T18:06:27.450Z,101232.75
2023-05-12T18:08:53.801Z,101241.91
2023-05-12T18:11:21.053Z,101235.53
2023-05-12T18:13:47.406Z,101238.31
2023-05-12T18:16:25.226Z,101247.47
2023-05-12T18:18:54.665Z,101250.66
2023-05-12T18:21:21.069Z,101249.47
2023-05-12T18:23:48.323Z,101252.25
2023-05-12T18:26:14.692Z,101255.03
2023-05-12T18:28:41.927Z,101245.06
2023-05-12T18:31:15.959Z,101259.78
2023-05-12T18:33:43.650Z,101264.19
2023-05-12T18:36:11.304Z,101260.63
2023-05-12T18:38:37.734Z,101260.63
2023-05-12T18:41:04.994Z,101266.19
2023-05-12T18:43:31.430Z,101262.59
2023-05-12T18:45:58.804Z,101266.19
2023-05-12T18:48:25.246Z,101271.75
2023-05-12T18:50:51.666Z,101266.19
2023-05-12T18:53:18.100Z,101267.38
2023-05-12T18:55:46.444Z,101274.53
2023-05-12T18:58:14.697Z,101273.31
2023-05-12T19:00:43.866Z,101274.50
2023-05-12T19:03:11.186Z,101272.06
2023-05-12T19:05:40.536Z,101274.44
2023-05-12T19:08:07.131Z,101276.84
2023-05-12T19:10:33.558Z,101274.84
2023-05-12T19:13:01.000Z,101277.22
2023-05-12T19:15:28.366Z,101271.63
2023-05-12T19:17:54.858Z,101279.13
2023-05-12T19:20:23.388Z,101278.78
2023-05-12T19:22:50.650Z,101281.22
2023-05-12T19:25:18.131Z,101291.91
2023-05-12T19:27:44.649Z,101285.91
2023-05-12T19:30:11.103Z,101293.84
2023-05-12T19:32:37.740Z,101297.03
2023-05-12T19:35:04.206Z,101288.31
2023-05-12T19:37:30.687Z,101288.31
2023-05-12T19:39:57.941Z,101298.31
2023-05-12T19:42:26.252Z,101298.97
2023-05-12T19:44:52.735Z,101298.13
2023-05-12T19:47:19.200Z,101294.63
2023-05-12T19:49:45.637Z,101290.31
2023-05-12T19:52:12.131Z,101292.75
2023-05-12T19:54:39.373Z,101297.91
2023-05-12T19:57:05.842Z,101304.63
2023-05-12T19:59:32.323Z,101299.03
2023-05-12T20:01:58.797Z,101296.28
2023-05-12T20:04:26.168Z,101303.06
2023-05-12T20:06:53.432Z,101301.06
2023-05-12T20:09:19.843Z,101306.91
2023-05-12T20:11:46.305Z,101300.09
2023-05-12T20:14:12.761Z,101306.00
2023-05-12T20:16:40.164Z,101305.31
2023-05-12T20:19:07.620Z,101303.31
2023-05-12T20:21:34.201Z,101305.69
2023-05-12T20:24:01.544Z,101307.31
2023-05-12T20:26:28.020Z,101302.91
2023-05-12T20:28:54.590Z,101299.31
2023-05-12T20:31:21.086Z,101303.34
2023-05-12T20:33:48.426Z,101297.78
2023-05-12T20:36:15.760Z,101299.81
2023-05-12T20:38:42.174Z,101296.59
2023-05-12T20:41:08.692Z,101300.53
2023-05-12T20:43:35.174Z,101298.13
2023-05-12T20:46:01.716Z,101302.84
2023-05-12T20:48:28.209Z,101299.31
2023-05-12T20:50:54.673Z,101299.31
2023-05-12T20:53:22.043Z,101300.84
2023-05-12T20:55:49.424Z,101302.50
2023-05-12T20:58:15.901Z,101303.59
2023-05-12T21:00:42.305Z,101303.66
2023-05-12T21:03:08.804Z,101303.31
2023-05-12T21:05:36.206Z,101308.69
2023-05-12T21:08:02.688Z,101301.72
2023-05-12T21:10:30.295Z,101311.72
2023-05-12T21:12:56.718Z,101308.56
2023-05-12T21:15:25.986Z,101304.63
2023-05-12T21:17:53.916Z,101303.84
2023-05-12T21:20:20.491Z,101307.03
2023-05-12T21:22:47.234Z,101308.22
2023-05-12T21:25:13.747Z,101312.59
2023-05-12T21:27:40.253Z,101309.81
2023-05-12T21:30:07.488Z,101309.81
2023-05-12T21:32:33.966Z,101314.56
2023-05-12T21:35:00.536Z,101314.19
2023-05-12T21:37:27.833Z,101313.00
2023-05-12T21:42:21.548Z,101315.00
2023-05-12T21:44:48.058Z,101322.13
2023-05-12T21:47:14.511Z,101327.72
2023-05-12T21:49:41.753Z,101326.94
2023-05-12T21:52:10.970Z,101330.16
2023-05-12T21:54:38.264Z,101329.78
2023-05-12T21:57:04.732Z,101328.22
2023-05-12T21:59:31.223Z,101334.97
2023-05-12T22:01:58.852Z,101336.19
2023-05-12T22:04:25.436Z,101336.56
2023-05-12T22:06:51.918Z,101332.19
2023-05-12T22:09:19.297Z,101332.56
2023-05-12T22:11:46.700Z,101332.56
2023-05-12T22:14:13.163Z,101330.94
2023-05-12T22:16:42.345Z,101334.94
2023-05-12T22:19:09.278Z,101328.56
2023-05-12T22:21:36.761Z,101329.75
2023-05-12T22:24:03.231Z,101331.75
2023-05-12T22:26:29.630Z,101328.56
2023-05-12T22:28:56.973Z,101332.53
2023-05-12T22:31:23.527Z,101328.13
2023-05-12T22:33:50.834Z,101327.75
2023-05-12T22:36:18.188Z,101326.97
2023-05-12T22:38:44.668Z,101330.13
2023-05-12T22:41:11.988Z,101331.72
2023-05-12T22:43:39.322Z,101335.28
2023-05-12T22:48:38.670Z,101328.94
2023-05-12T22:51:06.635Z,101324.13
2023-05-12T22:53:33.017Z,101328.50
2023-05-12T22:55:59.445Z,101328.94
2023-05-12T22:58:25.904Z,101323.75
2023-05-12T23:00:52.467Z,101330.91
2023-05-12T23:03:18.980Z,101330.16
2023-05-12T23:05:46.310Z,101326.56
2023-05-12T23:08:13.621Z,101322.56
2023-05-12T23:10:40.037Z,101328.59
2023-05-12T23:13:07.294Z,101324.59
2023-05-12T23:15:34.618Z,101331.38
2023-05-12T23:18:02.049Z,101325.78
2023-05-12T23:20:29.447Z,101321.00
2023-05-12T23:22:55.893Z,101331.38
2023-05-12T23:25:23.188Z,101320.22
2023-05-12T23:27:50.515Z,101326.56
2023-05-12T23:30:16.952Z,101318.63
2023-05-12T23:32:44.422Z,101324.97
2023-05-12T23:35:10.904Z,101319.41
2023-05-12T23:37:38.286Z,101323.00
2023-05-12T23:40:04.809Z,101323.00
2023-05-12T23:42:32.155Z,101318.22
2023-05-12T23:44:58.627Z,101318.22
2023-05-12T23:47:25.987Z,101323.41
2023-05-12T23:49:53.383Z,101309.84
2023-05-12T23:52:19.800Z,101307.47
2023-05-12T23:54:46.252Z,101302.31
2023-05-12T23:57:13.665Z,101301.13
2023-05-12T23:59:40.113Z,101305.09
